createdAt,value
2023-04-08T00:00:46.539Z,3.20
2023-04-08T00:03:14.366Z,3.00
2023-04-08T00:05:42.402Z,3.33
2023-04-08T00:08:10.198Z,3.20
2023-04-08T00:10:38.080Z,2.83
2023-04-08T00:13:05.991Z,3.10
2023-04-08T00:15:33.828Z,3.45
2023-04-08T00:18:02.366Z,4.50
2023-04-08T00:20:30.147Z,4.57
2023-04-08T00:22:58.099Z,4.07
2023-04-08T00:25:26.062Z,3.58
2023-04-08T00:27:54.171Z,3.95
2023-04-08T00:30:22.189Z,3.92
2023-04-08T00:32:50.181Z,3.97
2023-04-08T00:35:18.035Z,3.60
2023-04-08T00:37:46.144Z,3.95
2023-04-08T00:40:14.049Z,4.13
2023-04-08T00:42:42.184Z,3.78
2023-04-08T00:45:10.801Z,3.83
2023-04-08T00:47:38.902Z,3.92
2023-04-08T00:50:10.774Z,3.20
2023-04-08T00:52:39.892Z,3.60
2023-04-08T00:55:08.049Z,3.15
2023-04-08T00:57:36.768Z,3.15
2023-04-08T01:00:06.591Z,2.97
2023-04-08T01:02:39.554Z,3.30
2023-04-08T01:05:15.340Z,3.03
2023-04-08T01:07:50.840Z,3.00
2023-04-08T01:10:27.770Z,2.60
2023-04-08T01:12:58.041Z,2.80
2023-04-08T01:15:31.058Z,2.78
2023-04-08T01:18:01.895Z,3.08
2023-04-08T01:20:30.767Z,2.80
2023-04-08T01:23:08.754Z,3.22
2023-04-08T01:25:38.604Z,2.92
2023-04-08T01:28:11.704Z,2.42
2023-04-08T01:30:41.444Z,2.67
2023-04-08T01:33:13.942Z,2.90
2023-04-08T01:35:42.484Z,3.92
2023-04-08T01:38:15.587Z,4.40
2023-04-08T01:40:45.364Z,5.05
2023-04-08T01:43:15.998Z,4.45
2023-04-08T01:45:49.319Z,5.03
2023-04-08T01:48:17.433Z,4.85
2023-04-08T01:50:46.189Z,4.97
2023-04-08T01:53:14.773Z,4.32
2023-04-08T01:55:43.898Z,3.95
2023-04-08T01:58:20.702Z,3.60
2023-04-08T02:00:49.775Z,3.65
2023-04-08T02:03:21.934Z,3.50
2023-04-08T02:05:49.877Z,3.30
2023-04-08T02:08:17.749Z,3.17
2023-04-08T02:10:45.677Z,3.03
2023-04-08T02:13:13.443Z,2.72
2023-04-08T02:15:48.662Z,2.72
2023-04-08T02:18:22.719Z,3.17
2023-04-08T02:21:16.113Z,2.92
2023-04-08T02:23:49.466Z,2.90
2023-04-08T02:26:19.118Z,2.80
2023-04-08T02:28:50.514Z,2.65
2023-04-08T02:31:20.237Z,2.65
2023-04-08T02:33:51.684Z,2.65
2023-04-08T02:36:20.944Z,2.78
2023-04-08T02:38:50.373Z,3.15
2023-04-08T02:41:18.355Z,3.03
2023-04-08T02:43:48.221Z,2.75
2023-04-08T02:46:16.108Z,2.35
2023-04-08T02:48:44.056Z,2.50
2023-04-08T02:51:11.757Z,2.28
2023-04-08T02:53:39.594Z,2.17
2023-04-08T02:56:10.553Z,2.20
2023-04-08T02:58:38.765Z,1.92
2023-04-08T03:01:09.018Z,2.60
2023-04-08T03:03:37.132Z,1.92
2023-04-08T03:06:05.281Z,1.60
2023-04-08T03:08:33.858Z,1.65
2023-04-08T03:11:02.834Z,1.77
2023-04-08T03:13:31.820Z,1.63
2023-04-08T03:15:59.641Z,1.67
2023-04-08T03:18:27.473Z,1.55
2023-04-08T03:20:55.565Z,1.48
2023-04-08T03:23:25.332Z,1.73
2023-04-08T03:25:53.107Z,1.67
2023-04-08T03:28:20.959Z,1.35
2023-04-08T03:30:48.768Z,1.55
2023-04-08T03:33:16.713Z,1.40
2023-04-08T03:35:44.522Z,1.60
2023-04-08T03:38:12.284Z,1.50
2023-04-08T03:40:40.065Z,1.20
2023-04-08T03:43:09.033Z,1.52
2023-04-08T03:45:36.877Z,1.17
2023-04-08T03:48:04.958Z,1.60
2023-04-08T03:50:32.912Z,1.80
2023-04-08T03:53:00.701Z,1.50
2023-04-08T03:55:28.487Z,1.60
2023-04-08T03:57:56.174Z,1.30
2023-04-08T04:00:24.179Z,1.27
2023-04-08T04:02:51.842Z,1.10
2023-04-08T04:05:19.604Z,1.20
2023-04-08T04:07:47.264Z,1.27
2023-04-08T04:10:15.054Z,1.33
2023-04-08T04:12:42.967Z,1.50
2023-04-08T04:15:11.292Z,1.67
2023-04-08T04:17:39.185Z,1.95
2023-04-08T04:20:07.780Z,1.70
2023-04-08T04:22:35.601Z,1.67
2023-04-08T04:25:03.270Z,1.67
2023-04-08T04:27:31.146Z,1.70
2023-04-08T04:29:59.074Z,1.42
2023-04-08T04:32:27.084Z,1.65
2023-04-08T04:34:55.191Z,1.30
2023-04-08T04:37:23.461Z,1.30
2023-04-08T04:39:51.052Z,1.58
2023-04-08T04:42:18.831Z,1.60
2023-04-08T04:44:46.571Z,1.30
2023-04-08T04:47:14.425Z,1.75
2023-04-08T04:49:42.154Z,1.67
2023-04-08T04:52:10.040Z,1.80
2023-04-08T04:54:38.160Z,1.45
2023-04-08T04:57:06.345Z,2.00
2023-04-08T04:59:34.059Z,1.60
2023-04-08T05:02:01.957Z,1.40
2023-04-08T05:04:29.894Z,1.63
2023-04-08T05:07:00.110Z,1.90
2023-04-08T05:09:29.276Z,1.90
2023-04-08T05:11:57.259Z,1.85
2023-04-08T05:14:24.977Z,1.60
2023-04-08T05:16:52.816Z,1.75
2023-04-08T05:19:20.647Z,1.80
2023-04-08T05:21:48.377Z,1.80
2023-04-08T05:24:16.597Z,1.65
2023-04-08T05:26:44.423Z,2.55
2023-04-08T05:29:12.276Z,2.50
2023-04-08T05:31:39.983Z,3.00
2023-04-08T05:34:07.807Z,2.90
2023-04-08T05:36:35.491Z,2.95
2023-04-08T05:39:03.531Z,2.30
2023-04-08T05:41:31.498Z,2.00
2023-04-08T05:43:59.287Z,2.22
2023-04-08T05:46:27.588Z,2.38
2023-04-08T05:48:55.287Z,1.83
2023-04-08T05:51:22.972Z,2.33
2023-04-08T05:53:50.831Z,2.67
2023-04-08T05:56:18.668Z,3.17
2023-04-08T05:58:46.804Z,3.90
2023-04-08T06:01:14.549Z,4.70
2023-04-08T06:03:42.657Z,3.60
2023-04-08T06:06:14.489Z,4.40
2023-04-08T06:08:42.272Z,4.03
2023-04-08T06:11:10.258Z,5.20
2023-04-08T06:13:38.604Z,6.70
2023-04-08T06:16:21.376Z,7.03
2023-04-08T06:18:49.774Z,6.18
2023-04-08T06:21:19.392Z,5.28
2023-04-08T06:23:47.316Z,4.63
2023-04-08T06:26:16.636Z,4.10
2023-04-08T06:28:44.360Z,4.50
2023-04-08T06:31:12.279Z,4.03
2023-04-08T06:33:40.227Z,3.70
2023-04-08T06:36:08.623Z,3.42
2023-04-08T06:38:37.138Z,3.45
2023-04-08T06:41:08.724Z,2.80
2023-04-08T06:43:38.030Z,2.80
2023-04-08T06:46:06.329Z,2.35
2023-04-08T06:48:34.559Z,2.50
2023-04-08T06:51:02.451Z,2.60
2023-04-08T06:53:31.460Z,2.17
2023-04-08T06:55:59.487Z,2.80
2023-04-08T06:58:27.518Z,2.47
2023-04-08T07:00:56.582Z,2.92
2023-04-08T07:03:24.561Z,2.80
2023-04-08T07:05:52.983Z,2.17
2023-04-08T07:08:20.905Z,2.50
2023-04-08T07:10:49.212Z,2.55
2023-04-08T07:13:17.807Z,3.15
2023-04-08T07:15:45.510Z,3.63
2023-04-08T07:18:14.016Z,6.10
2023-04-08T07:20:42.252Z,6.47
2023-04-08T07:23:09.999Z,8.18
2023-04-08T07:25:37.981Z,9.55
2023-04-08T07:28:05.651Z,9.00
2023-04-08T07:30:33.481Z,7.68
2023-04-08T07:33:01.401Z,7.00
2023-04-08T07:35:29.842Z,7.15
2023-04-08T07:37:58.152Z,5.85
2023-04-08T07:40:26.329Z,6.30
2023-04-08T07:42:54.832Z,6.10
2023-04-08T07:45:22.581Z,5.45
2023-04-08T07:47:50.563Z,5.20
2023-04-08T07:50:18.649Z,5.43
2023-04-08T07:52:46.364Z,7.32
2023-04-08T07:55:14.140Z,7.88
2023-04-08T07:57:41.939Z,8.32
2023-04-08T08:00:10.050Z,8.60
2023-04-08T08:02:44.685Z,8.60
2023-04-08T08:05:12.583Z,8.32
2023-04-08T08:07:40.681Z,7.15
2023-04-08T08:10:09.330Z,7.55
2023-04-08T08:12:37.750Z,7.00
2023-04-08T08:15:06.184Z,6.88
2023-04-08T08:17:34.197Z,5.90
2023-04-08T08:20:01.936Z,6.03
2023-04-08T08:22:30.197Z,5.45
2023-04-08T08:24:58.160Z,5.13
2023-04-08T08:27:26.449Z,5.32
2023-04-08T08:29:54.265Z,5.72
2023-04-08T08:32:22.092Z,5.05
2023-04-08T08:34:50.583Z,4.05
2023-04-08T08:37:18.257Z,2.70
2023-04-08T08:39:46.190Z,2.90
2023-04-08T08:42:24.768Z,2.60
2023-04-08T08:44:52.887Z,2.75
2023-04-08T08:47:20.991Z,2.35
2023-04-08T08:49:49.393Z,2.95
2023-04-08T08:52:18.378Z,2.92
2023-04-08T08:54:46.505Z,2.92
2023-04-08T08:57:19.191Z,2.95
2023-04-08T08:59:47.952Z,3.22
2023-04-08T09:02:30.430Z,3.45
2023-04-08T09:05:03.939Z,3.40
2023-04-08T09:07:36.954Z,3.10
2023-04-08T09:10:05.085Z,3.13
2023-04-08T09:12:32.953Z,2.20
2023-04-08T09:15:09.041Z,2.30
2023-04-08T09:17:39.837Z,2.85
2023-04-08T09:20:12.370Z,2.65
2023-04-08T09:23:02.864Z,2.15
2023-04-08T09:25:32.897Z,2.60
2023-04-08T09:28:03.167Z,0.98
2023-04-08T09:30:32.929Z,1.73
2023-04-08T09:33:03.699Z,2.72
2023-04-08T09:35:31.942Z,2.05
2023-04-08T09:38:00.013Z,4.53
2023-04-08T09:40:28.020Z,2.97
2023-04-08T09:42:57.866Z,2.17
2023-04-08T09:45:28.280Z,2.05
2023-04-08T09:48:10.186Z,2.55
2023-04-08T09:50:47.023Z,2.17
2023-04-08T09:53:23.129Z,1.98
2023-04-08T09:55:55.539Z,2.40
2023-04-08T09:58:39.214Z,3.03
2023-04-08T10:01:09.410Z,3.20
2023-04-08T10:03:51.487Z,2.65
2023-04-08T10:06:22.011Z,2.85
2023-04-08T10:08:50.137Z,3.33
2023-04-08T10:11:18.241Z,2.10
2023-04-08T10:13:46.440Z,3.08
2023-04-08T10:16:26.230Z,3.05
2023-04-08T10:18:58.319Z,2.67
2023-04-08T10:21:48.740Z,3.05
2023-04-08T10:24:16.682Z,3.30
2023-04-08T10:26:46.209Z,3.15
2023-04-08T10:29:21.484Z,3.80
2023-04-08T10:31:53.234Z,5.43
2023-04-08T10:34:23.837Z,5.45
2023-04-08T10:36:51.715Z,6.13
2023-04-08T10:39:19.619Z,5.65
2023-04-08T10:41:54.188Z,5.80
2023-04-08T10:44:26.979Z,5.05
2023-04-08T10:46:56.001Z,4.78
2023-04-08T10:49:33.520Z,4.45
2023-04-08T10:52:01.853Z,4.05
2023-04-08T10:54:31.373Z,3.55
2023-04-08T10:57:00.250Z,3.70
2023-04-08T10:59:29.736Z,3.63
2023-04-08T11:01:58.740Z,3.53
2023-04-08T11:04:27.677Z,4.20
2023-04-08T11:06:55.785Z,3.67
2023-04-08T11:09:23.593Z,3.97
2023-04-08T11:11:52.752Z,4.05
2023-04-08T11:14:22.228Z,3.95
2023-04-08T11:16:50.189Z,3.50
2023-04-08T11:19:18.717Z,3.53
2023-04-08T11:21:47.035Z,3.13
2023-04-08T11:24:16.945Z,3.40
2023-04-08T11:26:45.045Z,3.60
2023-04-08T11:29:14.745Z,3.45
2023-04-08T11:31:44.295Z,3.50
2023-04-08T11:34:12.391Z,4.05
2023-04-08T11:36:43.251Z,4.00
2023-04-08T11:39:12.321Z,4.13
2023-04-08T11:41:43.040Z,4.45
2023-04-08T11:44:11.015Z,3.60
2023-04-08T11:46:41.027Z,3.28
2023-04-08T11:49:10.261Z,2.78
2023-04-08T11:52:02.603Z,3.00
2023-04-08T11:54:32.742Z,3.08
2023-04-08T11:57:01.207Z,2.33
2023-04-08T11:59:29.948Z,2.88
2023-04-08T12:01:58.197Z,2.65
2023-04-08T12:04:26.354Z,3.28
2023-04-08T12:06:55.384Z,2.83
2023-04-08T12:09:24.627Z,3.60
2023-04-08T12:11:52.534Z,4.85
2023-04-08T12:14:22.296Z,4.43
2023-04-08T12:16:50.162Z,6.13
2023-04-08T12:19:18.146Z,9.55
2023-04-08T12:21:46.040Z,17.30
2023-04-08T12:24:13.972Z,20.75
2023-04-08T12:26:41.779Z,19.85
2023-04-08T12:29:12.907Z,15.50
2023-04-08T12:31:40.800Z,14.48
2023-04-08T12:34:08.616Z,13.77
2023-04-08T12:36:36.516Z,12.35
2023-04-08T12:39:04.317Z,10.10
2023-04-08T12:41:32.114Z,9.70
2023-04-08T12:44:00.463Z,7.72
2023-04-08T12:46:29.986Z,8.50
2023-04-08T12:49:04.320Z,7.63
2023-04-08T12:51:33.488Z,5.78
2023-04-08T12:54:02.160Z,5.45
2023-04-08T12:56:31.999Z,5.00
2023-04-08T12:59:01.152Z,5.57
2023-04-08T13:01:31.361Z,5.13
2023-04-08T13:03:59.569Z,5.63
2023-04-08T13:06:28.356Z,5.40
2023-04-08T13:08:56.438Z,4.55
2023-04-08T13:11:25.557Z,4.78
2023-04-08T13:13:53.487Z,5.05
2023-04-08T13:16:22.331Z,4.40
2023-04-08T13:18:50.358Z,4.40
2023-04-08T13:21:18.504Z,4.57
2023-04-08T13:23:47.208Z,3.75
2023-04-08T13:26:15.092Z,2.92
2023-04-08T13:28:55.926Z,3.08
2023-04-08T13:31:25.732Z,2.88
2023-04-08T13:33:56.890Z,2.50
2023-04-08T13:36:27.034Z,3.47
2023-04-08T13:38:54.938Z,3.15
2023-04-08T13:41:22.765Z,2.95
2023-04-08T13:43:50.652Z,3.38
2023-04-08T13:46:18.494Z,2.80
2023-04-08T13:48:46.647Z,3.15
2023-04-08T13:51:14.725Z,2.42
2023-04-08T13:53:42.525Z,2.38
2023-04-08T13:56:10.829Z,2.47
2023-04-08T13:58:38.694Z,3.50
2023-04-08T14:01:07.112Z,2.78
2023-04-08T14:03:34.934Z,3.80
2023-04-08T14:06:02.615Z,2.67
2023-04-08T14:08:30.672Z,3.30
2023-04-08T14:10:59.520Z,3.28
2023-04-08T14:13:27.295Z,3.58
2023-04-08T14:15:58.501Z,3.22
2023-04-08T14:18:26.668Z,2.75
2023-04-08T14:20:54.433Z,2.97
2023-04-08T14:23:22.553Z,2.60
2023-04-08T14:25:50.699Z,3.40
2023-04-08T14:28:18.580Z,3.45
2023-04-08T14:30:47.713Z,4.43
2023-04-08T14:33:15.546Z,3.60
2023-04-08T14:35:43.625Z,3.55
2023-04-08T14:38:11.850Z,3.65
2023-04-08T14:40:39.875Z,3.78
2023-04-08T14:43:07.771Z,3.85
2023-04-08T14:45:39.260Z,3.72
2023-04-08T14:48:08.267Z,3.10
2023-04-08T14:50:36.068Z,3.33
2023-04-08T14:53:03.736Z,3.50
2023-04-08T14:55:32.531Z,3.08
2023-04-08T14:58:01.294Z,3.25
2023-04-08T15:00:29.410Z,2.40
2023-04-08T15:02:57.412Z,2.88
2023-04-08T15:05:26.253Z,2.63
2023-04-08T15:07:54.415Z,3.28
2023-04-08T15:10:22.270Z,2.38
2023-04-08T15:12:50.086Z,2.20
2023-04-08T15:15:17.674Z,2.63
2023-04-08T15:17:46.017Z,2.22
2023-04-08T15:20:14.242Z,2.28
2023-04-08T15:22:42.453Z,2.05
2023-04-08T15:25:11.238Z,2.28
2023-04-08T15:27:39.845Z,3.05
2023-04-08T15:30:09.853Z,2.45
2023-04-08T15:32:39.151Z,3.20
2023-04-08T15:35:07.680Z,4.55
2023-04-08T15:37:35.401Z,13.32
2023-04-08T15:40:03.509Z,12.93
2023-04-08T15:42:31.657Z,8.75
2023-04-08T15:44:59.358Z,3.78
2023-04-08T15:47:27.880Z,3.38
2023-04-08T15:49:56.265Z,2.00
2023-04-08T15:52:24.151Z,2.08
2023-04-08T15:54:51.818Z,1.45
2023-04-08T15:57:22.359Z,1.80
2023-04-08T15:59:50.050Z,1.70
2023-04-08T16:02:18.053Z,2.05
2023-04-08T16:04:49.236Z,1.70
2023-04-08T16:07:17.418Z,1.73
2023-04-08T16:09:45.201Z,1.98
2023-04-08T16:12:15.105Z,2.05
2023-04-08T16:14:42.777Z,1.83
2023-04-08T16:17:10.564Z,1.70
2023-04-08T16:19:38.554Z,2.20
2023-04-08T16:22:06.592Z,2.05
2023-04-08T16:24:36.776Z,3.00
2023-04-08T16:27:04.748Z,2.75
2023-04-08T16:29:32.817Z,2.78
2023-04-08T16:32:02.031Z,2.83
2023-04-08T16:34:30.642Z,2.10
2023-04-08T16:36:58.516Z,1.70
2023-04-08T16:39:26.357Z,1.88
2023-04-08T16:41:54.128Z,2.28
2023-04-08T16:44:21.859Z,2.00
2023-04-08T16:46:49.530Z,2.83
2023-04-08T16:49:18.552Z,2.28
2023-04-08T16:51:46.424Z,1.98
2023-04-08T16:54:14.109Z,1.83
2023-04-08T16:56:46.612Z,3.42
2023-04-08T16:59:15.926Z,4.28
2023-04-08T17:01:46.704Z,3.90
2023-04-08T17:04:14.621Z,3.85
2023-04-08T17:06:42.834Z,3.92
2023-04-08T17:09:11.112Z,4.75
2023-04-08T17:11:38.968Z,6.20
2023-04-08T17:14:07.485Z,6.38
2023-04-08T17:16:35.980Z,4.80
2023-04-08T17:19:03.863Z,5.00
2023-04-08T17:21:32.725Z,4.15
2023-04-08T17:24:00.547Z,3.70
2023-04-08T17:26:28.647Z,3.40
2023-04-08T17:28:56.630Z,3.33
2023-04-08T17:31:24.469Z,2.58
2023-04-08T17:33:52.280Z,2.50
2023-04-08T17:36:20.171Z,2.50
2023-04-08T17:38:49.603Z,2.42
2023-04-08T17:41:29.823Z,2.83
2023-04-08T17:44:03.816Z,2.97
2023-04-08T17:46:33.093Z,3.30
2023-04-08T17:49:00.864Z,3.60
2023-04-08T17:51:30.368Z,2.72
2023-04-08T17:53:58.039Z,2.60
2023-04-08T17:56:27.949Z,4.43
2023-04-08T17:58:56.518Z,9.55
2023-04-08T18:01:25.692Z,10.35
2023-04-08T18:03:53.984Z,7.65
2023-04-08T18:06:23.937Z,5.32
2023-04-08T18:08:51.752Z,4.50
2023-04-08T18:11:21.142Z,4.07
2023-04-08T18:13:49.053Z,3.03
2023-04-08T18:16:18.334Z,1.98
2023-04-08T18:18:47.237Z,1.77
2023-04-08T18:21:17.984Z,1.85
2023-04-08T18:23:47.169Z,1.88
2023-04-08T18:26:14.798Z,2.03
2023-04-08T18:28:42.445Z,2.33
2023-04-08T18:31:10.621Z,5.68
2023-04-08T18:33:39.338Z,4.78
2023-04-08T18:36:09.067Z,4.53
2023-04-08T18:38:37.114Z,3.00
2023-04-08T18:41:04.985Z,3.63
2023-04-08T18:43:33.804Z,3.38
2023-04-08T18:46:02.076Z,2.60
2023-04-08T18:48:29.945Z,3.33
2023-04-08T18:50:58.042Z,2.72
2023-04-08T18:53:25.742Z,3.03
2023-04-08T18:55:53.928Z,3.22
2023-04-08T18:58:21.787Z,2.70
2023-04-08T19:00:49.665Z,2.33
2023-04-08T19:03:17.748Z,2.40
2023-04-08T19:05:46.688Z,2.38
2023-04-08T19:08:14.485Z,2.17
2023-04-08T19:10:42.367Z,1.92
2023-04-08T19:13:10.040Z,2.10
2023-04-08T19:15:38.392Z,1.92
2023-04-08T19:18:06.183Z,1.92
2023-04-08T19:20:33.944Z,1.88
2023-04-08T19:23:01.904Z,1.92
2023-04-08T19:25:29.618Z,1.60
2023-04-08T19:27:57.834Z,1.50
2023-04-08T19:30:25.852Z,2.38
2023-04-08T19:32:56.594Z,2.47
2023-04-08T19:35:24.594Z,3.55
2023-04-08T19:37:52.422Z,3.35
2023-04-08T19:40:20.457Z,3.28
2023-04-08T19:42:48.549Z,3.70
2023-04-08T19:45:16.378Z,3.85
2023-04-08T19:47:45.425Z,3.72
2023-04-08T19:50:13.594Z,4.00
2023-04-08T19:52:41.374Z,3.70
2023-04-08T19:55:10.728Z,3.95
2023-04-08T19:57:38.615Z,5.03
2023-04-08T20:00:07.108Z,4.25
2023-04-08T20:02:34.920Z,4.72
2023-04-08T20:05:03.259Z,4.85
2023-04-08T20:07:31.152Z,4.70
2023-04-08T20:09:59.020Z,4.82
2023-04-08T20:12:27.243Z,5.07
2023-04-08T20:14:55.495Z,6.43
2023-04-08T20:17:23.263Z,7.13
2023-04-08T20:19:51.199Z,6.80
2023-04-08T20:22:19.150Z,7.05
2023-04-08T20:24:48.113Z,6.53
2023-04-08T20:27:16.707Z,6.63
2023-04-08T20:29:45.362Z,5.70
2023-04-08T20:32:13.418Z,5.53
2023-04-08T20:34:41.848Z,5.70
2023-04-08T20:37:09.629Z,5.10
2023-04-08T20:39:37.651Z,4.63
2023-04-08T20:42:06.669Z,5.10
2023-04-08T20:44:34.731Z,4.88
2023-04-08T20:47:02.436Z,4.55
2023-04-08T20:49:30.362Z,4.80
2023-04-08T20:51:58.741Z,4.90
2023-04-08T20:54:26.716Z,4.05
2023-04-08T20:56:54.474Z,4.47
2023-04-08T20:59:22.458Z,3.63
2023-04-08T21:01:50.224Z,3.67
2023-04-08T21:04:17.955Z,3.00
2023-04-08T21:06:48.241Z,3.30
2023-04-08T21:09:16.551Z,2.80
2023-04-08T21:11:44.543Z,2.50
2023-04-08T21:14:12.653Z,3.33
2023-04-08T21:16:40.659Z,3.60
2023-04-08T21:19:08.430Z,3.40
2023-04-08T21:21:36.159Z,3.45
2023-04-08T21:24:07.215Z,2.60
2023-04-08T21:26:35.017Z,2.70
2023-04-08T21:29:02.841Z,2.67
2023-04-08T21:31:30.632Z,2.40
2023-04-08T21:33:58.745Z,3.03
2023-04-08T21:36:28.059Z,3.28
2023-04-08T21:38:57.176Z,3.50
2023-04-08T21:41:25.099Z,3.95
2023-04-08T21:43:53.928Z,4.55
2023-04-08T21:46:21.879Z,4.00
2023-04-08T21:48:49.941Z,4.38
2023-04-08T21:51:19.291Z,4.35
2023-04-08T21:53:47.088Z,4.57
2023-04-08T21:56:15.107Z,5.47
2023-04-08T21:58:44.409Z,6.15
2023-04-08T22:01:12.424Z,6.25
2023-04-08T22:03:40.290Z,6.30
2023-04-08T22:06:12.717Z,7.00
2023-04-08T22:08:44.436Z,6.27
2023-04-08T22:11:12.122Z,6.60
2023-04-08T22:13:39.988Z,6.75
2023-04-08T22:16:08.817Z,6.05
2023-04-08T22:18:36.825Z,6.07
2023-04-08T22:21:04.578Z,5.40
2023-04-08T22:23:32.455Z,6.05
2023-04-08T22:26:00.500Z,5.22
2023-04-08T22:28:28.284Z,5.90
2023-04-08T22:30:56.456Z,6.13
2023-04-08T22:33:24.297Z,5.60
2023-04-08T22:35:52.164Z,5.18
2023-04-08T22:38:19.990Z,4.47
2023-04-08T22:40:47.717Z,4.40
2023-04-08T22:43:15.853Z,3.30
2023-04-08T22:45:43.771Z,3.90
2023-04-08T22:48:11.698Z,3.30
2023-04-08T22:50:39.676Z,3.22
2023-04-08T22:53:07.654Z,3.03
2023-04-08T22:55:35.542Z,3.53
2023-04-08T22:58:03.365Z,2.97
2023-04-08T23:00:31.079Z,3.25
2023-04-08T23:02:59.003Z,2.97
2023-04-08T23:05:26.820Z,3.53
2023-04-08T23:07:54.579Z,3.20
2023-04-08T23:10:22.463Z,2.85
2023-04-08T23:12:50.424Z,2.88
2023-04-08T23:15:18.271Z,2.40
2023-04-08T23:17:46.064Z,2.67
2023-04-08T23:20:14.033Z,2.53
2023-04-08T23:22:43.013Z,2.30
2023-04-08T23:25:10.773Z,2.15
2023-04-08T23:27:38.649Z,2.20
2023-04-08T23:30:07.153Z,1.98
2023-04-08T23:32:35.984Z,1.83
2023-04-08T23:35:04.233Z,1.70
2023-04-08T23:37:32.138Z,1.58
2023-04-08T23:39:59.972Z,1.92
2023-04-08T23:42:27.720Z,1.55
2023-04-08T23:44:56.719Z,1.90
2023-04-08T23:47:24.442Z,1.80
2023-04-08T23:49:53.344Z,1.60
2023-04-08T23:52:21.155Z,1.55
2023-04-08T23:54:52.133Z,2.10
2023-04-08T23:57:23.183Z,1.80
2023-04-08T23:59:51.337Z,1.40
